Pagrindinis puslapis
METAR-TAF:

METAR-TAF

Oro uostai :

Burlengė, Švedija

platuma: 60-26N, ilguma: 015-31E, Aukštis: 145 m

Dabartinis oras

Ataskaita buvo paskelbta 39 minutes, ne 20:50 UTC
Ramus vėjas
Temperatūra 3°C
Drėgmė 87%
Slėgis 1008 hPa
Matomumas 10 km arba daugiau

METAR: ESSD 242050Z AUTO 00000KT 9999 SCT025/// BKN039/// OVC051/// 03/01 Q1008

Laikas: 23:29 (21:29 UTC)

Prognozė

Ataskaita buvo paskelbta 9 valandos ir 59 minutes, ne 11:30 UTC
Prognozė galioja nuo 24 metu 12 UTC su 24 metu 16 UTC
Vėjas 4 kt nuo kintamojo kryptimis
Matomumas 10 km arba daugiau
Su prošvaistėmis ne aukštis 5000 ft
Tikimybė 40%
nuo 24 metu 12 UTC su 24 metu 16 UTC
Išsisklaidę debesys ne aukštis 3500 ft, Liūtiniai kamuoliniai debesys.
lietus,

TAF: ESSD 241130Z 2412/2416 VRB04KT 9999 BKN050 PROB40 2412/2416 SHRA SCT035CB

Orai ataskaitas ir orų prognozės (METAR, TAF).

turimą stotys yra geltonos ir raudonos taškus žemėlapyje.

Perkelti pele per norėdami pamatyti stoties vardą.

Tada spustelėkite, norėdami matyti oro stebėjimo ir prognozės.

Norėdami pakeisti žemėlapį: spustelėkite ant žalios mygtukų su juodo kryžiaus žemyn,; žalią mygtuką su brūkšneliu, jei norite nutolinti; arba žalių rodyklių gretimoms žemėlapius.


METAR-TAF: